Hakuho Maru — JDSS — position and weather

sailwx.info

Track history (hours):
 
Tides and Currents Weather Stations Pressure Air Temp Water Temp Dewpoint Dewpoint Depression Visibility Wind Speed Wind Dir Waves Ship Positions

Oceanographic research ship Hakuho Maru (Japan)

Detailed information on ship capabilities available from University of Delaware's Ocean Information Center.

Last reported at 2018-Nov-02 08:29 UTC. Time now 2018-Dec-18 11:31 UTC.
Position N 01°19' E 103°21'.
Warning: this ship's position is 46 days out of date.

Length 100 m; beam 16.2 m; draft 6 m.

Type: Other ship. MMSI: 431010000.

Date/timePositionNaut miles runAvg speedWind from/ knotsBaromVisibWave heightAir tempDewpointWater temp
2018-Nov-02 08:29N 01°19' E 103°21'715.9
2018-Nov-02 08:02N 01°14' E 103°27'116.1
2018-Nov-02 07:57N 01°14' E 103°28'816.8
2018-Nov-02 07:30N 01°12' E 103°35'614.8
2018-Nov-02 07:04N 01°10' E 103°41'119.6
2018-Nov-02 07:00N 01°10' E 103°42'713.8
2018-Nov-02 06:30N 01°11' E 103°49'716.2
2018-Nov-02 06:04N 01°14' E 103°56'115.0
2018-Nov-02 05:59N 01°14' E 103°57'815.9
2018-Nov-02 05:30N 01°16' E 104°04'816.0
2018-Nov-02 05:02N 01°17' E 104°12'115.6
2018-Nov-02 04:59N 01°17' E 104°12'715.5
2018-Nov-02 04:30N 01°19' E 104°20'715.2
2018-Nov-02 04:03N 01°23' E 104°25'115.1
2018-Nov-02 03:59N 01°24' E 104°26'  
Track history (hours):
 
Tides and Currents Weather Stations Pressure Air Temp Water Temp Dewpoint Dewpoint Depression Visibility Wind Speed Wind Dir Waves Ship Positions

Oceanographic research ship Hakuho Maru (Japan)

Detailed information on ship capabilities available from University of Delaware's Ocean Information Center.

Last reported at 2018-Nov-02 08:29 UTC. Time now 2018-Dec-18 11:31 UTC.
Position N 01°19' E 103°21'.
Warning: this ship's position is 46 days out of date.

Length 100 m; beam 16.2 m; draft 6 m.

Type: Other ship. MMSI: 431010000.

Date/timePositionNaut miles runAvg speedWind from/ knotsBaromVisibWave heightAir tempDewpointWater temp
2018-Nov-02 08:29N 01°19' E 103°21'715.9
2018-Nov-02 08:02N 01°14' E 103°27'116.1
2018-Nov-02 07:57N 01°14' E 103°28'816.8
2018-Nov-02 07:30N 01°12' E 103°35'614.8
2018-Nov-02 07:04N 01°10' E 103°41'119.6
2018-Nov-02 07:00N 01°10' E 103°42'713.8
2018-Nov-02 06:30N 01°11' E 103°49'716.2
2018-Nov-02 06:04N 01°14' E 103°56'115.0
2018-Nov-02 05:59N 01°14' E 103°57'815.9
2018-Nov-02 05:30N 01°16' E 104°04'816.0
2018-Nov-02 05:02N 01°17' E 104°12'115.6
2018-Nov-02 04:59N 01°17' E 104°12'715.5
2018-Nov-02 04:30N 01°19' E 104°20'715.2
2018-Nov-02 04:03N 01°23' E 104°25'115.1
2018-Nov-02 03:59N 01°24' E 104°26'  

Dump ship's entire track history